首页
METAR-TAF:

METAR-TAF

机场 :

滑铁卢, 艾奥瓦州, 美国

纬度: 42-33-16N, 经度: 092-24-04W, 海拔: 266米

当前天气观测

该预报发布于37分钟前的05:54 UTC
风速14节,风向
温度 28°C
湿度 79%
气压 1004 hPa
能見度: 16.1公里
天空无云

METAR: KALO 250554Z AUTO 18014KT 10SM CLR 28/24 A2965 RMK AO2 SLP030 T02830244 10317 20283 403330200 58012

时间: 01:31 (06:31 UTC)

预报

该预报发布于1小时和11分钟前的05:20 UTC
预报有效从25日的 06点(UTC)到 26日的 06点(UTC)
风速11节,风向南转南东
能見度: 10公里
多云层高于24000英尺
从 25日的 1000点(UTC)
风速8节,风向西转西南
能見度: 10公里
散云层高于24000英尺
从 25日的 1400点(UTC)
风速7节,风向北转西北
能見度: 10公里
少量云层高于24000英尺
从 25日的 1800点(UTC)
风速6节,风向
能見度: 10公里
散云层高于24000英尺
附近有阵雨
从 25日的 2100点(UTC)
风速6节,风向
能見度: 10公里
散云层高于10000英尺, 积雨云.
附近有雷暴
从 25日的 2300点(UTC)
风速7节,风向北转东北
能見度: 10公里
散云层高于23000英尺

TAF: KALO 250520Z 2506/2606 16011KT P6SM BKN240 WS020/22045KT FM251000 25008KT P6SM SCT240 FM251400 33007KT P6SM FEW240 FM251800 36006KT P6SM VCSH SCT240 FM252100 01006KT P6SM VCTS SCT100CB FM252300 02007KT P6SM SCT230

超过4000个机场的气象观测和天气预报(METAR&TAF报告)。

可查询的气象台以黄色和红色小点在地图上表示。

将鼠标移到小点上方,可查看气象台名称。

然后点击查看天气观测和预报。

如需切换地图:点击带黑十字的绿色按钮放大地图;点击带横线的绿色按钮缩小地图;或者点击绿色箭头查看邻近地区的地图。


METAR-TAF: